Accueil
METAR-TAF:

METAR-TAF

Aéroports :

Aéroport de Reus

Reus, Espagne

latitude: 41-09N, longitude: 001-10E, altitude: 71 m

Observation

Le bulletin a été fait il y a 32 minutes, à 13:30 UTC
Vent 12 kt de sud-ouest
Température 11°C
Humidité 37%
Pression 1028 hPa
Visibilité 10 km ou plus
pas de nuages en-dessous de 1500 mètres et pas de cumulonimbus.

METAR: LERS 221330Z 23012KT CAVOK 11/M03 Q1028

Heure: 15:02 (14:02 UTC)

Prévision

Le bulletin a été fait il y a 1 heure et 35 minutes, à 12:27 UTC
Prévision valable du 22 à 12 UTC au 23 à 09 UTC
Vent 3 kt de direction variable
Visibilité 10 km ou plus
Nuages épars à une hauteur de 3000 ft
Temporairement
du 22 à 12 UTC au 22 à 16 UTC
Vent 9 kt de ouest

TAF: LERS 221227Z 2212/2309 VRB03KT 9999 SCT030 TX13/2213Z TNM01/2306Z TEMPO 2212/2216 27009KT

Observations et prévisions météorologiques de plus de 4000 aéroports (messages METAR et TAF).

Les stations disponibles sont représentées par des disques jaunes et rouges sur la carte.

Passer la souris dessus pour voir le nom de la station.

Cliquer dessus pour voir les observations et prévisions météorologiques.

Pour changer de carte: cliquez sur les boutons verts avec une croix noire pour zoomer, sur le bouton vert avec un tiret pour effectuer un zoom arrière, ou sur les flèches vertes pour les cartes adjacentes.


METAR-TAF: